Mid Ohio Valley Regional Airport Parkersburg US
ICAO: KPKB
IATA: PKB
Category: Medium
Scheduled Services: Yes

Elevation: 858 ft
TransAlt. 18000 ft.

Airport Communications:
ATIS:124.35
INDIANAPOLIS CNTR:125.55
CTAF:123.7
GND:121.7
PARKERSBURG TWR:123.7
UNICOM:122.95

KPKB Zoom In..

Runways:

(A) RW 03 length 7240 ft width 150 ft
ILS 110.70 / hdg 29

(B) RW 10 length 4002 ft width 150 ft
---- / hdg 102

(C) RW 21 length 7240 ft width 150 ft
---- / hdg 209

(D) RW 28 length 4002 ft width 150 ft
---- / hdg 282

Location; KPKB
Day. 24 / Time. 13.20 Zulu
* Altimeter: 30.26
* Temperature: 17° c. 62.6°f.
* Wind from: 070° Speed 03 kn.
Dewpoint: 14° c.
Visibility: 10 Statute Miles.
Clouds: Clear (automated report).

KPKB 241320Z 07003KT 10SM CLR 17/14 A3026 RMK AO2 T01720139


Wind From 070°
Speed 03 kn.

 
 
jpsmedia.com for Web Design SOUNDCLOUD worldairports.se 2018   terms of use